It is currently Tue Dec 12, 2017 1:56 pm




 Page 1 of 1 [ 1 post ] 
Author Message
 Post subject: NOTAM to all pilots flying To & From CYYT
PostPosted: Tue Aug 14, 2012 2:31 pm 
User avatar

Joined: Fri Mar 12, 2010 5:24 am
Posts: 437
Location: St. Agatha Ontario (nearest Airport is CYKF)
Click for Pics: http://avherald.com/h?article=454369d6&opt=0
Quote:
Incident: Volga Dnepr IL76 at St. John's on Aug 13th 2012, overran runway on landing


By Simon Hradecky, created Monday, Aug 13th 2012 19:46Z, last updated Monday, Aug 13th 2012 23:00Z

A Volga Dnepr Ilyushin IL-76, registration RA-76511 performing freight flight VI-4118 from Glasgow Prestwick,SC (UK) to St. John's,NL (Canada) with 9 crew and 40,000 lbs/18.2 tons of freight, landed on St. John's runway 11 but overran the end of the runway into the approach lights and came to a stop about 625 feet/190 meters past the runway end just short of the localizer antenna at about 16:12L (18:42Z). No injuries occurred.

The aerodrome was temporarily closed, runway 16/34 was later re-opened with runways 11/29 and 02/20 still closed, all aerodrome lighting was unserviceable for about 2 hours as result of the overrun. Runway lights 11/29 are still down and low visibility procedures are currently not authorized.

http://flightaware.com/live/flight/VDA4 ... /EGPK/CYYT

Metars:
CYYT 131900Z 23006KT 6SM BR BKN008 OVC020 23/23 A2996 RMK SF6SC2 SLP147 DENSITY ALT 1400FT
CYYT 131853Z 22006KT 5SM BR BKN008 OVC020 23/22 A2997 RMK SF6SC2 SLP148 DENSITYALT 1400FT
CYYT 131821Z CCA 20002KT 4SM BR BKN005 BKN200 21/21 A2998 RMK SF5CI2 SLP152 DENSITY ALT 1200FT
CYYT 131800Z CCA 15003KT 1 1/2SM BR OVC003 20/20 A2998 RMK FG5SF3 SLP154 DENSITY ALT 1000FT
CYYT 131731Z CCA 16003KT 1/2SM R16/P6000FT/N R29/P6000FT/U FG VV002 18/18 A2999RMK FG8 SLP158 DENSITY ALT 800FT
CYYT 131700Z CCA 15005KT 3/8SM R16/6000FT/U R29/2600FT/N -RA FG VV001 18/18 A3000 RERA RMK FG8 SLP160 DENSITY ALT 800FT
CYYT 131643Z CCA 15007KT 1/2SM R16/P6000FT/N R29/P6000FT/N -RA FG VV001 18/18 A3000 RERA RMK FG8 SLP161 DENSITY ALT 800FT
CYYT 131600Z CCA 15006KT 2SM RA BR OVC003 18/18 A3002 RERA RMK FG3SF5 /R10/ SLP167 DENSITY ALT 700FT
CYYT 131500Z 15014KT 2SM RA BR OVC003 17/17 A3003 RMK FG3SF5 SLP172 DENSITY ALT 600FT

Relevant NOTAMs:
08/023 (120695) - CYYT LOW VIS PROCEDURES NOT AUTH. 13 AUG 20:42 2012 UNTIL 14 AUG 23:30 2012. CREATED: 13 AUG 20:48 2012

08/022 (120694) - CYYT RWY 02/20 CLSD AVBL AS TWY. 13 AUG 20:16 2012 UNTIL UFN. CREATED: 13 AUG 20:17 2012

08/021 (120693) - CYYT ILS 11 AND 29 U/S. 13 AUG 20:00 2012 UNTIL 14 AUG 00:01 2012. CREATED: 13 AUG 19:57 2012

08/020 (120692) - CYYT RWY 11/29 CLSD. 13 AUG 19:44 2012 UNTIL UFN. CREATED: 13 AUG 19:51 2012

Check for Latst NOTAMS First and watch for the Vodka Burners ;)



_________________
Canadian Virtual Airlines Forums welcomes its newest member Lord Letto making a total of 150 registered members.

Image
Offline
 Profile  
 
Display posts from previous:  Sort by  
 Page 1 of 1 [ 1 post ] 


Who is online

Users browsing this forum: No registered users and 2 guests


You cannot post new topics in this forum
You cannot reply to topics in this forum
You cannot edit your posts in this forum
You cannot delete your posts in this forum

Search for:
Jump to:  

cron